createdAt,value
2023-03-25T00:04:45.571Z,1.00
2023-03-25T00:09:49.195Z,1.00
2023-03-25T00:14:55.850Z,1.00
2023-03-25T00:20:02.502Z,1.00
2023-03-25T00:25:06.441Z,1.00
2023-03-25T00:30:11.229Z,1.00
2023-03-25T00:35:19.964Z,1.00
2023-03-25T00:40:23.579Z,1.00
2023-03-25T00:45:26.963Z,1.00
2023-03-25T00:50:31.732Z,1.00
2023-03-25T00:55:35.145Z,1.00
2023-03-25T01:00:38.491Z,1.00
2023-03-25T01:05:43.366Z,1.00
2023-03-25T01:10:46.732Z,1.00
2023-03-25T01:15:50.537Z,1.00
2023-03-25T01:20:55.497Z,1.00
2023-03-25T01:25:58.966Z,1.00
2023-03-25T01:31:03.046Z,1.00
2023-03-25T01:36:10.604Z,1.00
2023-03-25T01:41:13.960Z,1.00
2023-03-25T01:46:19.425Z,1.00
2023-03-25T01:51:28.528Z,1.00
2023-03-25T01:56:34.847Z,1.00
2023-03-25T02:01:38.669Z,1.00
2023-03-25T02:06:46.071Z,1.00
2023-03-25T02:11:50.520Z,99.90
2023-03-25T02:17:04.351Z,1.00
2023-03-25T02:22:51.785Z,1.00
2023-03-25T02:28:03.764Z,1.00
2023-03-25T02:33:33.774Z,1.00
2023-03-25T02:38:43.720Z,1.00
2023-03-25T02:43:52.628Z,1.00
2023-03-25T02:49:00.011Z,1.00
2023-03-25T02:54:09.847Z,1.00
2023-03-25T02:59:15.376Z,1.00
2023-03-25T03:04:18.766Z,1.00
2023-03-25T03:09:37.580Z,48.10
2023-03-25T03:14:57.355Z,1.00
2023-03-25T03:20:05.323Z,99.90
2023-03-25T03:25:22.080Z,1.00
2023-03-25T03:30:32.632Z,1.00
2023-03-25T03:35:39.256Z,1.00
2023-03-25T03:40:47.264Z,80.80
2023-03-25T03:45:55.292Z,1.00
2023-03-25T03:51:04.421Z,1.00
2023-03-25T03:56:13.814Z,21.90
2023-03-25T04:01:30.474Z,99.90
2023-03-25T04:06:42.065Z,1.00
2023-03-25T04:11:54.453Z,30.60
2023-03-25T04:16:59.816Z,1.00
2023-03-25T04:22:03.653Z,16.70
2023-03-25T04:27:09.831Z,99.90
2023-03-25T04:32:13.547Z,1.00
2023-03-25T04:37:16.972Z,1.00
2023-03-25T04:42:21.735Z,1.00
2023-03-25T04:47:27.143Z,1.00
2023-03-25T04:52:30.576Z,82.60
2023-03-25T04:57:35.377Z,1.00
2023-03-25T05:02:39.133Z,1.00
2023-03-25T05:07:45.530Z,1.00
2023-03-25T05:12:50.516Z,1.00
2023-03-25T05:17:53.980Z,99.90
2023-03-25T05:22:57.695Z,42.20
2023-03-25T05:28:05.921Z,16.40
2023-03-25T05:33:10.342Z,1.00
2023-03-25T05:38:16.758Z,1.00
2023-03-25T05:43:23.043Z,1.00
2023-03-25T05:48:26.520Z,1.00
2023-03-25T05:53:31.278Z,1.00
2023-03-25T05:58:36.482Z,1.00
2023-03-25T06:03:39.875Z,1.00
2023-03-25T06:08:43.467Z,1.00
2023-03-25T06:13:50.760Z,1.00
2023-03-25T06:18:56.507Z,99.90
2023-03-25T06:24:01.420Z,99.90
2023-03-25T06:29:06.139Z,99.90
2023-03-25T06:34:09.472Z,99.90
2023-03-25T06:39:14.228Z,99.90
2023-03-25T06:44:24.541Z,99.90
2023-03-25T06:49:28.401Z,99.90
2023-03-25T06:54:33.531Z,99.90
2023-03-25T06:59:40.238Z,99.90
2023-03-25T07:04:43.556Z,99.90
2023-03-25T07:09:46.943Z,99.90
2023-03-25T07:14:54.149Z,99.90
2023-03-25T07:19:57.549Z,99.90
2023-03-25T07:25:00.917Z,99.90
2023-03-25T07:30:06.523Z,99.90
2023-03-25T07:35:10.671Z,99.90
2023-03-25T07:40:14.687Z,99.90
2023-03-25T07:45:19.600Z,99.90
2023-03-25T07:50:25.474Z,99.90
2023-03-25T07:55:29.460Z,99.90
2023-03-25T08:00:34.218Z,99.90
2023-03-25T08:05:38.186Z,99.90
2023-03-25T08:10:44.002Z,99.90
2023-03-25T08:15:48.931Z,99.90
2023-03-25T08:20:52.503Z,99.90
2023-03-25T08:25:56.557Z,99.90
2023-03-25T08:31:02.523Z,99.90
2023-03-25T08:36:06.721Z,99.90
2023-03-25T08:41:10.241Z,99.90
2023-03-25T08:46:15.148Z,99.90
2023-03-25T08:51:19.091Z,99.90
2023-03-25T08:56:22.668Z,99.90
2023-03-25T09:01:31.014Z,99.90
2023-03-25T09:06:48.078Z,99.90
2023-03-25T09:12:03.183Z,99.90
2023-03-25T09:17:10.260Z,99.90
2023-03-25T09:22:13.593Z,99.90
2023-03-25T09:27:16.882Z,99.90
2023-03-25T09:32:21.722Z,99.90
2023-03-25T09:37:25.134Z,99.90
2023-03-25T09:42:38.821Z,99.90
2023-03-25T09:47:51.933Z,99.90
2023-03-25T09:53:01.924Z,99.90
2023-03-25T09:58:26.563Z,99.90
2023-03-25T10:03:36.646Z,99.90
2023-03-25T10:08:48.479Z,99.90
2023-03-25T10:13:57.120Z,99.90
2023-03-25T10:19:17.854Z,99.90
2023-03-25T10:24:24.895Z,99.90
2023-03-25T10:29:33.905Z,99.90
2023-03-25T10:34:42.766Z,99.90
2023-03-25T10:39:47.661Z,99.90
2023-03-25T10:44:51.325Z,99.90
2023-03-25T10:49:56.964Z,99.90
2023-03-25T10:55:00.922Z,99.90
2023-03-25T11:00:12.868Z,99.90
2023-03-25T11:05:20.574Z,99.90
2023-03-25T11:10:26.140Z,99.90
2023-03-25T11:15:33.623Z,99.90
2023-03-25T11:20:41.247Z,99.90
2023-03-25T11:25:45.341Z,99.90
2023-03-25T11:31:12.526Z,99.90
2023-03-25T11:36:30.081Z,99.90
2023-03-25T11:41:35.513Z,99.90
2023-03-25T11:46:44.614Z,99.90
2023-03-25T11:51:51.279Z,99.90
2023-03-25T11:56:58.935Z,99.90
2023-03-25T12:02:04.618Z,99.90
2023-03-25T12:07:11.158Z,99.90
2023-03-25T12:12:35.159Z,1.00
2023-03-25T12:17:52.848Z,1.00
2023-03-25T12:23:03.535Z,1.00
2023-03-25T12:28:30.888Z,99.90
2023-03-25T12:33:48.178Z,99.90
2023-03-25T12:39:04.641Z,99.90
2023-03-25T12:44:12.701Z,99.90
2023-03-25T12:49:33.753Z,99.90
2023-03-25T12:54:53.024Z,99.90
2023-03-25T13:00:26.848Z,99.90
2023-03-25T13:05:37.175Z,99.90
2023-03-25T13:10:44.784Z,99.90
2023-03-25T13:15:51.228Z,99.90
2023-03-25T13:21:03.521Z,99.90
2023-03-25T13:26:19.036Z,99.90
2023-03-25T13:31:27.445Z,99.90
2023-03-25T13:36:36.192Z,99.90
2023-03-25T13:41:45.889Z,99.90
2023-03-25T13:46:54.679Z,99.90
2023-03-25T13:52:00.179Z,99.90
2023-03-25T13:57:43.503Z,99.90
2023-03-25T14:03:14.572Z,1.00
2023-03-25T14:09:09.243Z,1.00
2023-03-25T14:14:17.906Z,1.00
2023-03-25T14:19:28.272Z,1.00
2023-03-25T14:24:35.236Z,99.90
2023-03-25T14:29:42.266Z,99.90
2023-03-25T14:34:47.210Z,99.90
2023-03-25T14:39:50.753Z,99.90
2023-03-25T14:45:15.821Z,99.90
2023-03-25T14:50:35.394Z,99.90
2023-03-25T14:55:45.465Z,99.90
2023-03-25T15:00:55.609Z,99.90
2023-03-25T15:06:02.828Z,99.90
2023-03-25T15:11:09.749Z,99.90
2023-03-25T15:16:21.008Z,99.90
2023-03-25T15:21:26.890Z,99.90
2023-03-25T15:26:33.307Z,99.90
2023-03-25T15:31:49.935Z,99.90
2023-03-25T15:37:14.300Z,99.90
2023-03-25T15:42:51.588Z,99.90
2023-03-25T15:48:25.984Z,99.90
2023-03-25T15:53:58.567Z,99.90
2023-03-25T15:59:07.052Z,99.90
2023-03-25T16:04:18.754Z,99.90
2023-03-25T16:09:28.931Z,99.90
2023-03-25T16:14:34.259Z,99.90
2023-03-25T16:19:42.297Z,99.90
2023-03-25T16:24:50.199Z,99.90
2023-03-25T16:29:55.893Z,99.90
2023-03-25T16:34:59.904Z,99.90
2023-03-25T16:40:10.477Z,99.90
2023-03-25T16:45:17.224Z,99.90
2023-03-25T16:50:21.069Z,99.90
2023-03-25T16:55:42.984Z,99.90
2023-03-25T17:00:49.686Z,99.90
2023-03-25T17:05:57.578Z,99.90
2023-03-25T17:11:02.340Z,99.90
2023-03-25T17:16:08.706Z,99.90
2023-03-25T17:21:13.838Z,99.90
2023-03-25T17:26:21.081Z,99.90
2023-03-25T17:31:33.258Z,99.90
2023-03-25T17:36:38.355Z,99.90
2023-03-25T17:41:43.390Z,99.90
2023-03-25T17:46:46.943Z,99.90
2023-03-25T17:51:50.637Z,99.90
2023-03-25T17:56:55.446Z,99.90
2023-03-25T18:01:59.052Z,99.90
2023-03-25T18:07:03.244Z,99.90
2023-03-25T18:12:08.460Z,99.90
2023-03-25T18:17:13.564Z,99.90
2023-03-25T18:22:20.187Z,99.90
2023-03-25T18:27:33.565Z,99.90
2023-03-25T18:32:44.664Z,99.90
2023-03-25T18:37:48.917Z,99.90
2023-03-25T18:42:54.514Z,99.90
2023-03-25T18:47:58.114Z,99.90
2023-03-25T18:53:01.654Z,99.90
2023-03-25T18:58:07.931Z,99.90
2023-03-25T19:03:11.646Z,99.90
2023-03-25T19:08:18.238Z,99.90
2023-03-25T19:13:22.951Z,99.90
2023-03-25T19:18:27.858Z,99.90
2023-03-25T19:23:31.546Z,99.90
2023-03-25T19:28:36.310Z,99.90
2023-03-25T19:33:39.571Z,99.90
2023-03-25T19:38:42.934Z,99.90
2023-03-25T19:43:47.812Z,99.90
2023-03-25T19:48:52.105Z,99.90
2023-03-25T19:53:55.897Z,99.90
2023-03-25T19:59:00.717Z,99.90
2023-03-25T20:04:04.235Z,99.90
2023-03-25T20:09:08.264Z,99.90
2023-03-25T20:14:13.233Z,99.90
2023-03-25T20:19:16.846Z,99.90
2023-03-25T20:24:20.294Z,99.90
2023-03-25T20:29:25.152Z,99.90
2023-03-25T20:34:28.754Z,99.90
2023-03-25T20:39:32.341Z,99.90
2023-03-25T20:44:37.194Z,99.90
2023-03-25T20:49:40.771Z,99.90
2023-03-25T20:54:44.254Z,99.90
2023-03-25T20:59:49.126Z,99.90
2023-03-25T21:04:55.362Z,99.90
2023-03-25T21:09:59.233Z,99.90
2023-03-25T21:15:04.659Z,99.90
2023-03-25T21:20:09.714Z,99.90
2023-03-25T21:25:15.284Z,99.90
2023-03-25T21:30:20.131Z,99.90
2023-03-25T21:35:24.093Z,99.90
2023-03-25T21:40:27.761Z,99.90
2023-03-25T21:45:44.724Z,99.90
2023-03-25T21:50:51.902Z,99.90
2023-03-25T21:56:00.261Z,99.90
2023-03-25T22:01:10.391Z,99.90
2023-03-25T22:06:15.953Z,99.90
2023-03-25T22:11:21.968Z,99.90
2023-03-25T22:16:27.727Z,99.90
2023-03-25T22:21:33.285Z,99.90
2023-03-25T22:26:39.356Z,99.90
2023-03-25T22:31:44.218Z,99.90
2023-03-25T22:36:51.110Z,99.90
2023-03-25T22:41:55.589Z,99.90
2023-03-25T22:47:00.615Z,99.90
2023-03-25T22:52:04.161Z,99.90
2023-03-25T22:57:07.698Z,99.90
2023-03-25T23:02:14.651Z,99.90
2023-03-25T23:07:18.727Z,99.90
2023-03-25T23:12:24.040Z,99.90
2023-03-25T23:17:29.122Z,99.90
2023-03-25T23:22:32.669Z,99.90
2023-03-25T23:27:36.287Z,99.90
2023-03-25T23:32:42.216Z,99.90
2023-03-25T23:37:46.531Z,99.90
2023-03-25T23:42:49.976Z,99.90
2023-03-25T23:47:55.049Z,99.90
2023-03-25T23:53:01.686Z,99.90
2023-03-25T23:58:05.450Z,99.90
